createdAt,value
2023-05-06T00:00:13.291Z,101404.88
2023-05-06T00:00:43.773Z,101408.19
2023-05-06T00:01:14.187Z,101410.72
2023-05-06T00:01:44.605Z,101410.07
2023-05-06T00:02:15.093Z,101408.16
2023-05-06T00:02:45.582Z,101405.64
2023-05-06T00:03:16.040Z,101407.16
2023-05-06T00:03:46.946Z,101404.96
2023-05-06T00:04:17.597Z,101407.94
2023-05-06T00:04:48.093Z,101408.42
2023-05-06T00:05:18.567Z,101405.38
2023-05-06T00:05:48.967Z,101407.07
2023-05-06T00:06:19.389Z,101404.22
2023-05-06T00:06:49.824Z,101402.05
2023-05-06T00:07:20.233Z,101404.89
2023-05-06T00:07:50.669Z,101403.56
2023-05-06T00:08:21.096Z,101405.13
2023-05-06T00:08:51.529Z,101401.81
2023-05-06T00:09:21.949Z,101400.63
2023-05-06T00:09:52.382Z,101401.41
2023-05-06T00:10:22.793Z,101400.73
2023-05-06T00:10:53.220Z,101401.25
2023-05-06T00:11:23.635Z,101400.33
2023-05-06T00:11:54.062Z,101404.22
2023-05-06T00:12:24.488Z,101399.83
2023-05-06T00:12:54.952Z,101398.86
2023-05-06T00:13:25.377Z,101399.91
2023-05-06T00:13:55.770Z,101401.80
2023-05-06T00:14:26.190Z,101403.78
2023-05-06T00:14:56.618Z,101399.48
2023-05-06T00:15:27.040Z,101399.47
2023-05-06T00:15:57.479Z,101399.78
2023-05-06T00:16:27.904Z,101399.91
2023-05-06T00:16:58.318Z,101394.86
2023-05-06T00:17:28.797Z,101400.23
2023-05-06T00:17:59.209Z,101398.86
2023-05-06T00:18:29.610Z,101397.17
2023-05-06T00:19:00.028Z,101398.98
2023-05-06T00:19:30.560Z,101397.17
2023-05-06T00:20:00.928Z,101393.85
2023-05-06T00:20:31.350Z,101397.27
2023-05-06T00:21:01.778Z,101396.94
2023-05-06T00:21:32.199Z,101396.72
2023-05-06T00:22:02.633Z,101394.52
2023-05-06T00:22:33.057Z,101394.70
2023-05-06T00:23:03.479Z,101391.16
2023-05-06T00:23:33.930Z,101390.81
2023-05-06T00:24:04.374Z,101390.65
2023-05-06T00:24:34.764Z,101390.28
2023-05-06T00:25:05.269Z,101387.92
2023-05-06T00:25:35.639Z,101389.56
2023-05-06T00:26:06.081Z,101388.70
2023-05-06T00:26:36.500Z,101389.72
2023-05-06T00:27:06.943Z,101386.00
2023-05-06T00:27:37.366Z,101389.19
2023-05-06T00:28:07.793Z,101386.95
2023-05-06T00:28:38.210Z,101389.52
2023-05-06T00:29:08.629Z,101385.29
2023-05-06T00:29:39.050Z,101385.75
2023-05-06T00:30:09.478Z,101387.25
2023-05-06T00:30:39.910Z,101384.78
2023-05-06T00:31:10.323Z,101384.94
2023-05-06T00:31:40.802Z,101384.25
2023-05-06T00:32:11.416Z,101383.81
2023-05-06T00:32:41.938Z,101384.27
2023-05-06T00:33:12.434Z,101387.02
2023-05-06T00:33:42.793Z,101384.48
2023-05-06T00:34:13.214Z,101382.59
2023-05-06T00:34:43.931Z,101382.79
2023-05-06T00:35:14.295Z,101386.36
2023-05-06T00:35:44.718Z,101382.16
2023-05-06T00:36:15.172Z,101384.63
2023-05-06T00:36:45.619Z,101378.41
2023-05-06T00:37:16.030Z,101379.90
2023-05-06T00:37:46.453Z,101378.58
2023-05-06T00:38:16.882Z,101379.08
2023-05-06T00:38:47.297Z,101377.12
2023-05-06T00:39:17.743Z,101377.33
2023-05-06T00:39:48.159Z,101376.67
2023-05-06T00:40:18.580Z,101376.61
2023-05-06T00:40:49.008Z,101373.25
2023-05-06T00:41:19.442Z,101374.65
2023-05-06T00:41:49.865Z,101378.17
2023-05-06T00:42:20.293Z,101373.95
2023-05-06T00:42:50.710Z,101371.04
2023-05-06T00:43:21.136Z,101372.05
2023-05-06T00:43:51.569Z,101371.42
2023-05-06T00:44:21.989Z,101369.39
2023-05-06T00:44:52.413Z,101370.86
2023-05-06T00:45:22.840Z,101369.73
2023-05-06T00:45:53.349Z,101368.06
2023-05-06T00:46:23.824Z,101366.61
2023-05-06T00:46:54.324Z,101365.55
2023-05-06T00:47:24.757Z,101367.22
2023-05-06T00:47:55.240Z,101361.95
2023-05-06T00:48:25.763Z,101363.78
2023-05-06T00:48:56.154Z,101360.90
2023-05-06T00:49:26.570Z,101363.02
2023-05-06T00:49:57.086Z,101364.48
2023-05-06T00:50:27.447Z,101365.53
2023-05-06T00:50:57.885Z,101359.34
2023-05-06T00:51:28.319Z,101357.36
2023-05-06T00:51:58.754Z,101359.47
2023-05-06T00:52:29.168Z,101358.12
2023-05-06T00:52:59.577Z,101356.59
2023-05-06T00:53:30.020Z,101358.45
2023-05-06T00:54:00.448Z,101354.07
2023-05-06T00:54:30.887Z,101355.62
2023-05-06T00:55:01.303Z,101355.80
2023-05-06T00:55:31.767Z,101353.60
2023-05-06T00:56:02.184Z,101351.02
2023-05-06T00:56:32.606Z,101349.36
2023-05-06T00:57:03.039Z,101354.36
2023-05-06T00:57:33.458Z,101350.14
2023-05-06T00:58:03.876Z,101353.52
2023-05-06T00:58:34.306Z,101348.34
2023-05-06T00:59:04.719Z,101348.78
2023-05-06T00:59:35.141Z,101348.33
2023-05-06T01:00:05.576Z,101348.88
2023-05-06T01:00:36.036Z,101348.88
2023-05-06T01:01:06.500Z,101345.16
2023-05-06T01:01:36.932Z,101341.97
2023-05-06T01:02:07.379Z,101344.86
2023-05-06T01:02:46.242Z,101342.33
2023-05-06T01:03:13.164Z,101345.83
2023-05-06T01:03:43.739Z,101340.98
2023-05-06T01:04:14.142Z,101344.48
2023-05-06T01:04:44.583Z,101344.16
2023-05-06T01:05:15.239Z,101346.80
2023-05-06T01:05:45.627Z,101341.48
2023-05-06T01:06:16.049Z,101342.36
2023-05-06T01:06:46.463Z,101345.39
2023-05-06T01:07:16.906Z,101348.44
2023-05-06T01:07:47.326Z,101347.20
2023-05-06T01:08:17.748Z,101347.41
2023-05-06T01:08:48.173Z,101346.08
2023-05-06T01:09:18.598Z,101344.38
2023-05-06T01:09:49.015Z,101341.34
2023-05-06T01:10:19.460Z,101341.34
2023-05-06T01:10:49.870Z,101337.80
2023-05-06T01:11:20.289Z,101340.23
2023-05-06T01:11:50.721Z,101331.72
2023-05-06T01:12:21.146Z,101341.91
2023-05-06T01:12:51.584Z,101340.27
2023-05-06T01:13:22.012Z,101337.20
2023-05-06T01:13:52.425Z,101333.80
2023-05-06T01:14:22.844Z,101334.19
2023-05-06T01:14:53.272Z,101335.47
2023-05-06T01:15:23.702Z,101336.49
2023-05-06T01:15:54.150Z,101335.48
2023-05-06T01:16:24.625Z,101336.48
2023-05-06T01:16:55.076Z,101336.87
2023-05-06T01:17:25.494Z,101341.91
2023-05-06T01:17:55.938Z,101341.72
2023-05-06T01:18:26.344Z,101337.31
2023-05-06T01:18:56.735Z,101335.47
2023-05-06T01:19:27.155Z,101336.66
2023-05-06T01:19:57.590Z,101333.93
2023-05-06T01:20:28.170Z,101338.98
2023-05-06T01:20:58.537Z,101334.92
2023-05-06T01:21:28.958Z,101336.95
2023-05-06T01:21:59.393Z,101339.08
2023-05-06T01:22:29.824Z,101339.73
2023-05-06T01:23:00.262Z,101337.65
2023-05-06T01:23:30.658Z,101339.31
2023-05-06T01:24:01.101Z,101339.99
2023-05-06T01:24:31.515Z,101342.04
2023-05-06T01:25:01.941Z,101341.89
2023-05-06T01:25:32.366Z,101340.04
2023-05-06T01:26:02.804Z,101340.67
2023-05-06T01:26:33.241Z,101341.84
2023-05-06T01:27:03.661Z,101342.88
2023-05-06T01:27:34.098Z,101337.45
2023-05-06T01:28:04.506Z,101336.92
2023-05-06T01:28:34.928Z,101338.06
2023-05-06T01:29:05.346Z,101340.50
2023-05-06T01:29:35.802Z,101342.98
2023-05-06T01:30:06.222Z,101339.93
2023-05-06T01:30:36.653Z,101337.05
2023-05-06T01:31:07.116Z,101346.53
2023-05-06T01:31:37.644Z,101342.41
2023-05-06T01:32:08.063Z,101341.01
2023-05-06T01:32:38.533Z,101343.58
2023-05-06T01:33:08.916Z,101344.50
2023-05-06T01:33:39.327Z,101347.36
2023-05-06T01:34:09.770Z,101345.31
2023-05-06T01:34:40.193Z,101345.50
2023-05-06T01:35:10.815Z,101346.13
2023-05-06T01:35:41.459Z,101346.57
2023-05-06T01:36:11.828Z,101352.91
2023-05-06T01:36:42.343Z,101350.05
2023-05-06T01:37:12.723Z,101351.53
2023-05-06T01:37:43.156Z,101354.38
2023-05-06T01:38:13.586Z,101351.95
2023-05-06T01:38:43.996Z,101352.36
2023-05-06T01:39:14.426Z,101349.31
2023-05-06T01:39:44.858Z,101348.98
2023-05-06T01:40:15.282Z,101352.84
2023-05-06T01:40:45.722Z,101354.67
2023-05-06T01:41:16.126Z,101355.39
2023-05-06T01:41:46.547Z,101354.77
2023-05-06T01:42:16.974Z,101351.96
2023-05-06T01:42:47.394Z,101350.27
2023-05-06T01:43:17.826Z,101349.38
2023-05-06T01:43:48.268Z,101351.07
2023-05-06T01:44:18.690Z,101349.20
2023-05-06T01:44:49.111Z,101347.10
2023-05-06T01:45:19.539Z,101347.42
2023-05-06T01:45:49.965Z,101348.28
2023-05-06T01:46:20.433Z,101345.60
2023-05-06T01:46:50.855Z,101344.55
2023-05-06T01:47:21.268Z,101349.25
2023-05-06T01:47:51.721Z,101341.99
2023-05-06T01:48:22.113Z,101342.97
2023-05-06T01:48:52.559Z,101341.56
2023-05-06T01:49:22.977Z,101340.41
2023-05-06T01:49:53.398Z,101339.61
2023-05-06T01:50:23.824Z,101342.24
2023-05-06T01:50:54.267Z,101338.53
2023-05-06T01:51:24.674Z,101341.56
2023-05-06T01:51:55.096Z,101338.43
2023-05-06T01:52:25.523Z,101340.81
2023-05-06T01:52:55.947Z,101339.42
2023-05-06T01:53:26.381Z,101335.09
2023-05-06T01:53:56.811Z,101338.52
2023-05-06T01:54:27.230Z,101340.34
2023-05-06T01:54:57.651Z,101347.06
2023-05-06T01:55:28.090Z,101342.67
2023-05-06T01:55:58.520Z,101344.88
2023-05-06T01:56:28.937Z,101346.26
2023-05-06T01:56:59.363Z,101344.57
2023-05-06T01:57:29.789Z,101345.61
2023-05-06T01:58:00.214Z,101342.95
2023-05-06T01:58:30.644Z,101344.12
2023-05-06T01:59:01.109Z,101343.80
2023-05-06T01:59:31.531Z,101344.41
2023-05-06T02:00:01.976Z,101342.59
2023-05-06T02:00:32.377Z,101347.27
2023-05-06T02:01:02.821Z,101343.68
2023-05-06T02:01:33.260Z,101343.01
2023-05-06T02:02:03.705Z,101343.13
2023-05-06T02:02:34.579Z,101343.79
2023-05-06T02:03:05.109Z,101347.10
2023-05-06T02:03:35.607Z,101347.23
2023-05-06T02:04:06.153Z,101345.02
2023-05-06T02:04:36.584Z,101346.02
2023-05-06T02:05:07.459Z,101346.41
2023-05-06T02:05:37.993Z,101344.59
2023-05-06T02:06:08.510Z,101345.97
2023-05-06T02:06:38.879Z,101350.19
2023-05-06T02:07:09.295Z,101349.83
2023-05-06T02:07:39.727Z,101347.12
2023-05-06T02:08:10.157Z,101342.73
2023-05-06T02:08:40.578Z,101348.31
2023-05-06T02:09:11.003Z,101343.27
2023-05-06T02:09:41.427Z,101346.15
2023-05-06T02:10:11.855Z,101344.34
2023-05-06T02:10:42.271Z,101346.22
2023-05-06T02:11:12.695Z,101345.52
2023-05-06T02:11:43.114Z,101347.55
2023-05-06T02:12:13.582Z,101350.19
2023-05-06T02:12:44.069Z,101353.23
2023-05-06T02:13:14.480Z,101347.99
2023-05-06T02:13:44.962Z,101348.62
2023-05-06T02:14:15.383Z,101350.08
2023-05-06T02:14:45.804Z,101349.09
2023-05-06T02:15:16.232Z,101349.17
2023-05-06T02:15:46.705Z,101341.72
2023-05-06T02:16:17.146Z,101346.05
2023-05-06T02:16:47.558Z,101341.31
2023-05-06T02:17:17.992Z,101342.55
2023-05-06T02:17:48.476Z,101342.88
2023-05-06T02:18:18.863Z,101338.50
2023-05-06T02:18:49.284Z,101339.28
2023-05-06T02:19:19.704Z,101336.75
2023-05-06T02:19:50.127Z,101338.55
2023-05-06T02:20:20.550Z,101338.88
2023-05-06T02:20:50.982Z,101341.39
2023-05-06T02:21:21.494Z,101335.50
2023-05-06T02:21:51.855Z,101339.41
2023-05-06T02:22:22.305Z,101335.54
2023-05-06T02:22:52.737Z,101335.25
2023-05-06T02:23:23.163Z,101341.15
2023-05-06T02:23:53.583Z,101337.25
2023-05-06T02:24:24.003Z,101337.54
2023-05-06T02:24:54.429Z,101340.63
2023-05-06T02:25:24.876Z,101340.75
2023-05-06T02:25:55.274Z,101338.95
2023-05-06T02:26:25.707Z,101340.19
2023-05-06T02:26:56.140Z,101334.17
2023-05-06T02:27:26.562Z,101336.34
2023-05-06T02:27:57.003Z,101336.62
2023-05-06T02:28:27.421Z,101339.82
2023-05-06T02:28:57.834Z,101334.83
2023-05-06T02:29:28.253Z,101334.51
2023-05-06T02:29:58.695Z,101338.16
2023-05-06T02:30:29.104Z,101333.09
2023-05-06T02:30:59.532Z,101335.02
2023-05-06T02:31:29.987Z,101334.72
2023-05-06T02:32:00.442Z,101334.71
2023-05-06T02:32:30.842Z,101338.56
2023-05-06T02:33:01.366Z,101341.41
2023-05-06T02:33:31.753Z,101336.05
2023-05-06T02:34:02.173Z,101335.23
2023-05-06T02:34:32.592Z,101337.35
2023-05-06T02:35:03.035Z,101338.88
2023-05-06T02:35:33.435Z,101337.58
2023-05-06T02:36:03.866Z,101338.91
2023-05-06T02:36:34.474Z,101339.08
2023-05-06T02:37:04.858Z,101339.78
2023-05-06T02:37:35.282Z,101339.44
2023-05-06T02:38:05.730Z,101340.52
2023-05-06T02:38:36.136Z,101338.38
2023-05-06T02:39:06.562Z,101338.03
2023-05-06T02:39:36.984Z,101338.20
2023-05-06T02:40:07.405Z,101339.05
2023-05-06T02:40:37.827Z,101343.80
2023-05-06T02:41:08.262Z,101334.31
2023-05-06T02:41:38.686Z,101336.52
2023-05-06T02:42:09.110Z,101338.66
2023-05-06T02:42:39.564Z,101333.45
2023-05-06T02:43:09.965Z,101337.80
2023-05-06T02:43:40.394Z,101336.01
2023-05-06T02:44:10.803Z,101332.08
2023-05-06T02:44:41.234Z,101331.58
2023-05-06T02:45:11.854Z,101333.24
2023-05-06T02:45:42.376Z,101334.78
2023-05-06T02:46:12.859Z,101331.47
2023-05-06T02:46:43.303Z,101327.73
2023-05-06T02:47:13.723Z,101330.79
2023-05-06T02:47:44.179Z,101327.08
2023-05-06T02:48:14.585Z,101324.56
2023-05-06T02:48:45.007Z,101324.56
2023-05-06T02:49:15.427Z,101329.59
2023-05-06T02:49:45.865Z,101325.47
2023-05-06T02:50:16.289Z,101321.95
2023-05-06T02:50:46.709Z,101322.06
2023-05-06T02:51:17.180Z,101324.48
2023-05-06T02:51:47.839Z,101319.73
2023-05-06T02:52:18.205Z,101319.58
2023-05-06T02:52:48.641Z,101318.59
2023-05-06T02:53:19.078Z,101314.91
2023-05-06T02:53:49.481Z,101320.48
2023-05-06T02:54:19.918Z,101320.97
2023-05-06T02:54:50.326Z,101318.39
2023-05-06T02:55:20.753Z,101316.50
2023-05-06T02:55:51.182Z,101321.04
2023-05-06T02:56:21.613Z,101316.95
2023-05-06T02:56:52.048Z,101321.95
2023-05-06T02:57:22.465Z,101322.98
2023-05-06T02:57:52.902Z,101321.48
2023-05-06T02:58:23.324Z,101322.30
2023-05-06T02:58:53.757Z,101324.27
2023-05-06T02:59:24.162Z,101321.89
2023-05-06T02:59:54.606Z,101323.34
2023-05-06T03:00:25.002Z,101325.22
2023-05-06T03:00:55.453Z,101325.30
2023-05-06T03:01:25.932Z,101329.17
2023-05-06T03:01:56.304Z,101324.77
2023-05-06T03:02:26.783Z,101329.55
2023-05-06T03:02:57.259Z,101327.92
2023-05-06T03:03:27.803Z,101327.33
2023-05-06T03:03:58.254Z,101327.59
2023-05-06T03:04:28.722Z,101327.27
2023-05-06T03:04:59.103Z,101329.56
2023-05-06T03:05:29.545Z,101333.38
2023-05-06T03:05:59.963Z,101333.55
2023-05-06T03:06:30.379Z,101336.64
2023-05-06T03:07:00.919Z,101335.20
2023-05-06T03:07:31.276Z,101341.93
2023-05-06T03:08:01.704Z,101343.07
2023-05-06T03:08:32.118Z,101345.07
2023-05-06T03:09:02.544Z,101345.30
2023-05-06T03:09:32.982Z,101344.92
2023-05-06T03:10:03.406Z,101347.27
2023-05-06T03:10:33.860Z,101347.80
2023-05-06T03:11:05.066Z,101349.17
2023-05-06T03:11:36.665Z,101352.27
2023-05-06T03:12:07.090Z,101350.50
2023-05-06T03:12:37.531Z,101349.33
2023-05-06T03:13:07.954Z,101350.38
2023-05-06T03:13:38.373Z,101353.88
2023-05-06T03:14:08.793Z,101352.77
2023-05-06T03:14:39.230Z,101353.78
2023-05-06T03:15:09.856Z,101353.11
2023-05-06T03:15:40.384Z,101352.44
2023-05-06T03:16:10.857Z,101359.58
2023-05-06T03:16:41.322Z,101358.66
2023-05-06T03:17:11.723Z,101355.39
2023-05-06T03:17:42.179Z,101353.86
2023-05-06T03:18:12.574Z,101352.16
2023-05-06T03:18:43.080Z,101350.92
2023-05-06T03:19:13.447Z,101348.62
2023-05-06T03:19:43.868Z,101350.22
2023-05-06T03:20:14.299Z,101347.67
2023-05-06T03:20:44.721Z,101347.71
2023-05-06T03:21:15.152Z,101346.87
2023-05-06T03:21:45.657Z,101344.48
2023-05-06T03:22:16.120Z,101343.47
2023-05-06T03:22:46.483Z,101344.73
2023-05-06T03:23:16.907Z,101345.53
2023-05-06T03:23:47.329Z,101341.61
2023-05-06T03:24:17.759Z,101342.55
2023-05-06T03:24:48.191Z,101343.05
2023-05-06T03:25:18.619Z,101343.66
2023-05-06T03:25:49.048Z,101341.59
2023-05-06T03:26:19.479Z,101343.47
2023-05-06T03:26:49.899Z,101343.47
2023-05-06T03:27:20.344Z,101347.16
2023-05-06T03:27:50.756Z,101341.42
2023-05-06T03:28:21.238Z,101347.59
2023-05-06T03:28:51.642Z,101344.17
2023-05-06T03:29:22.062Z,101344.09
2023-05-06T03:29:52.514Z,101347.33
2023-05-06T03:30:22.933Z,101344.16
2023-05-06T03:30:53.371Z,101345.06
2023-05-06T03:31:23.807Z,101346.20
2023-05-06T03:31:54.306Z,101338.34
2023-05-06T03:32:24.798Z,101340.89
2023-05-06T03:32:55.233Z,101338.74
2023-05-06T03:33:25.622Z,101339.44
2023-05-06T03:33:56.042Z,101337.52
2023-05-06T03:34:26.490Z,101335.45
2023-05-06T03:34:56.913Z,101333.98
2023-05-06T03:35:27.330Z,101334.97
2023-05-06T03:35:57.758Z,101333.60
2023-05-06T03:36:28.202Z,101330.06
2023-05-06T03:36:58.601Z,101330.39
2023-05-06T03:37:29.120Z,101330.35
2023-05-06T03:37:59.494Z,101327.82
2023-05-06T03:38:29.918Z,101329.25
2023-05-06T03:39:00.340Z,101324.16
2023-05-06T03:39:30.771Z,101324.08
2023-05-06T03:40:01.205Z,101326.36
2023-05-06T03:40:31.633Z,101326.62
2023-05-06T03:41:02.054Z,101326.16
2023-05-06T03:41:32.480Z,101329.44
2023-05-06T03:42:02.902Z,101325.87
2023-05-06T03:42:33.325Z,101321.75
2023-05-06T03:43:03.762Z,101323.74
2023-05-06T03:43:34.166Z,101325.72
2023-05-06T03:44:04.615Z,101321.14
2023-05-06T03:44:35.030Z,101320.94
2023-05-06T03:45:05.450Z,101319.89
2023-05-06T03:45:35.879Z,101319.81
2023-05-06T03:46:06.356Z,101318.12
2023-05-06T03:46:36.810Z,101319.97
2023-05-06T03:47:07.219Z,101318.59
2023-05-06T03:47:37.651Z,101313.68
2023-05-06T03:48:08.131Z,101314.46
2023-05-06T03:48:38.535Z,101315.22
2023-05-06T03:49:08.973Z,101315.73
2023-05-06T03:49:39.403Z,101315.38
2023-05-06T03:50:09.816Z,101315.30
2023-05-06T03:50:40.247Z,101319.42
2023-05-06T03:51:10.668Z,101314.75
2023-05-06T03:51:41.094Z,101314.73
2023-05-06T03:52:11.514Z,101317.88
2023-05-06T03:52:42.041Z,101317.69
2023-05-06T03:53:12.411Z,101316.27
2023-05-06T03:53:42.846Z,101319.18
2023-05-06T03:54:13.274Z,101317.11
2023-05-06T03:54:43.693Z,101317.81
2023-05-06T03:55:14.122Z,101319.18
2023-05-06T03:55:44.544Z,101314.50
2023-05-06T03:56:14.967Z,101312.64
2023-05-06T03:56:45.390Z,101314.67
2023-05-06T03:57:15.817Z,101311.08
2023-05-06T03:57:46.241Z,101313.95
2023-05-06T03:58:16.666Z,101313.07
2023-05-06T03:58:47.097Z,101314.06
2023-05-06T03:59:17.526Z,101313.58
2023-05-06T03:59:47.954Z,101308.14
2023-05-06T04:00:18.370Z,101311.12
2023-05-06T04:00:48.791Z,101309.34
2023-05-06T04:01:19.210Z,101305.88
2023-05-06T04:01:49.656Z,101306.17
2023-05-06T04:02:20.108Z,101307.07
2023-05-06T04:02:50.679Z,101303.61
2023-05-06T04:03:21.246Z,101305.45
2023-05-06T04:03:51.647Z,101307.80
2023-05-06T04:04:22.081Z,101308.25
2023-05-06T04:04:52.496Z,101307.45
2023-05-06T04:05:22.937Z,101305.73
2023-05-06T04:05:53.351Z,101306.53
2023-05-06T04:06:23.819Z,101311.12
2023-05-06T04:06:54.239Z,101311.52
2023-05-06T04:07:24.660Z,101310.73
2023-05-06T04:07:55.196Z,101312.58
2023-05-06T04:08:25.578Z,101309.20
2023-05-06T04:08:56.003Z,101311.73
2023-05-06T04:09:26.460Z,101311.11
2023-05-06T04:09:56.857Z,101309.91
2023-05-06T04:10:27.278Z,101309.46
2023-05-06T04:10:57.753Z,101311.98
2023-05-06T04:11:29.799Z,101311.42
2023-05-06T04:12:00.339Z,101310.33
2023-05-06T04:12:30.763Z,101314.21
2023-05-06T04:13:01.217Z,101314.84
2023-05-06T04:13:31.620Z,101318.12
2023-05-06T04:14:02.042Z,101317.16
2023-05-06T04:14:32.464Z,101315.59
2023-05-06T04:15:02.899Z,101317.77
2023-05-06T04:15:33.325Z,101314.27
2023-05-06T04:16:03.806Z,101315.25
2023-05-06T04:16:34.237Z,101321.28
2023-05-06T04:17:04.660Z,101317.88
2023-05-06T04:17:35.088Z,101314.84
2023-05-06T04:18:05.600Z,101317.70
2023-05-06T04:18:36.041Z,101317.30
2023-05-06T04:19:06.699Z,101316.27
2023-05-06T04:19:37.145Z,101318.31
2023-05-06T04:20:07.571Z,101320.13
2023-05-06T04:20:38.003Z,101318.77
2023-05-06T04:21:08.408Z,101319.45
2023-05-06T04:21:38.838Z,101320.13
2023-05-06T04:22:09.265Z,101321.80
2023-05-06T04:22:39.688Z,101323.48
2023-05-06T04:23:10.142Z,101321.84
2023-05-06T04:23:40.541Z,101318.81
2023-05-06T04:24:10.967Z,101323.84
2023-05-06T04:24:41.385Z,101324.62
2023-05-06T04:25:12.119Z,101321.72
2023-05-06T04:25:42.678Z,101325.77
2023-05-06T04:26:13.095Z,101330.27
2023-05-06T04:26:43.521Z,101327.49
2023-05-06T04:27:13.942Z,101331.84
2023-05-06T04:27:44.381Z,101328.41
2023-05-06T04:28:14.805Z,101333.30
2023-05-06T04:28:45.225Z,101333.73
2023-05-06T04:29:15.642Z,101331.22
2023-05-06T04:29:46.087Z,101330.41
2023-05-06T04:30:16.490Z,101333.47
2023-05-06T04:30:46.914Z,101334.44
2023-05-06T04:31:17.410Z,101333.67
2023-05-06T04:31:47.815Z,101332.84
2023-05-06T04:32:18.272Z,101335.62
2023-05-06T04:32:48.734Z,101337.03
2023-05-06T04:33:19.137Z,101339.38
2023-05-06T04:33:49.560Z,101335.69
2023-05-06T04:34:19.977Z,101339.72
2023-05-06T04:34:50.401Z,101339.20
2023-05-06T04:35:20.834Z,101340.91
2023-05-06T04:35:51.249Z,101340.89
2023-05-06T04:36:21.728Z,101342.59
2023-05-06T04:36:52.151Z,101341.80
2023-05-06T04:37:22.590Z,101343.10
2023-05-06T04:37:53.009Z,101343.41
2023-05-06T04:38:23.528Z,101342.59
2023-05-06T04:38:53.891Z,101340.48
2023-05-06T04:39:24.320Z,101340.99
2023-05-06T04:39:54.731Z,101341.84
2023-05-06T04:40:25.152Z,101346.69
2023-05-06T04:40:55.595Z,101348.06
2023-05-06T04:41:26.069Z,101345.80
2023-05-06T04:41:56.464Z,101346.53
2023-05-06T04:42:26.900Z,101343.96
2023-05-06T04:42:57.329Z,101343.96
2023-05-06T04:43:27.756Z,101345.58
2023-05-06T04:43:58.179Z,101341.62
2023-05-06T04:44:28.606Z,101343.45
2023-05-06T04:44:59.037Z,101346.09
2023-05-06T04:45:29.471Z,101344.06
2023-05-06T04:45:59.968Z,101345.36
2023-05-06T04:46:30.400Z,101346.33
2023-05-06T04:47:00.840Z,101346.39
2023-05-06T04:47:31.275Z,101344.08
2023-05-06T04:48:01.798Z,101340.76
2023-05-06T04:48:32.204Z,101346.20
2023-05-06T04:49:02.618Z,101345.89
2023-05-06T04:49:33.036Z,101341.55
2023-05-06T04:50:03.454Z,101344.12
2023-05-06T04:50:33.876Z,101340.91
2023-05-06T04:51:04.335Z,101345.42
2023-05-06T04:51:34.752Z,101346.77
2023-05-06T04:52:05.170Z,101345.86
2023-05-06T04:52:35.589Z,101344.88
2023-05-06T04:53:06.084Z,101348.89
2023-05-06T04:53:36.477Z,101346.70
2023-05-06T04:54:06.893Z,101346.87
2023-05-06T04:54:37.301Z,101346.93
2023-05-06T04:55:07.839Z,101347.62
2023-05-06T04:55:38.286Z,101351.20
2023-05-06T04:56:08.714Z,101347.20
2023-05-06T04:56:39.145Z,101344.96
2023-05-06T04:57:09.567Z,101349.94
2023-05-06T04:57:39.988Z,101347.59
2023-05-06T04:58:10.408Z,101348.72
2023-05-06T04:58:40.833Z,101348.34
2023-05-06T04:59:11.259Z,101351.09
2023-05-06T04:59:41.677Z,101353.16
2023-05-06T05:00:12.301Z,101352.13
2023-05-06T05:00:42.742Z,101352.87
2023-05-06T05:01:13.201Z,101353.75
2023-05-06T05:01:43.784Z,101354.05
2023-05-06T05:02:14.339Z,101354.21
2023-05-06T05:02:44.899Z,101356.34
2023-05-06T05:03:15.436Z,101357.73
2023-05-06T05:03:45.920Z,101359.06
2023-05-06T05:04:16.312Z,101357.47
2023-05-06T05:04:46.744Z,101361.65
2023-05-06T05:05:17.185Z,101360.83
2023-05-06T05:05:47.587Z,101362.31
2023-05-06T05:06:18.025Z,101362.23
2023-05-06T05:06:48.456Z,101364.03
2023-05-06T05:07:18.871Z,101365.09
2023-05-06T05:07:49.301Z,101366.61
2023-05-06T05:08:19.725Z,101363.91
2023-05-06T05:08:50.192Z,101366.66
2023-05-06T05:09:20.579Z,101364.59
2023-05-06T05:09:51.007Z,101366.17
2023-05-06T05:10:21.425Z,101366.34
2023-05-06T05:10:51.858Z,101364.45
2023-05-06T05:11:22.286Z,101366.53
2023-05-06T05:11:52.704Z,101368.80
2023-05-06T05:12:23.126Z,101368.28
2023-05-06T05:12:53.596Z,101366.67
2023-05-06T05:13:23.993Z,101368.98
2023-05-06T05:13:56.484Z,101366.91
2023-05-06T05:14:27.486Z,101370.89
2023-05-06T05:14:57.914Z,101369.20
2023-05-06T05:15:28.348Z,101368.48
2023-05-06T05:15:58.779Z,101368.46
2023-05-06T05:16:29.223Z,101367.89
2023-05-06T05:16:59.649Z,101369.58
2023-05-06T05:17:30.117Z,101367.85
2023-05-06T05:18:00.525Z,101369.26
2023-05-06T05:18:30.921Z,101371.26
2023-05-06T05:19:03.534Z,101369.66
2023-05-06T05:19:34.337Z,101368.98
2023-05-06T05:20:04.791Z,101369.87
2023-05-06T05:20:35.237Z,101370.03
2023-05-06T05:21:05.657Z,101368.48
2023-05-06T05:21:36.148Z,101371.50
2023-05-06T05:22:06.610Z,101370.67
2023-05-06T05:22:37.051Z,101367.98
2023-05-06T05:23:07.469Z,101371.05
2023-05-06T05:23:37.886Z,101373.09
2023-05-06T05:24:08.368Z,101371.70
2023-05-06T05:24:38.756Z,101370.67
2023-05-06T05:25:09.257Z,101373.54
2023-05-06T05:25:39.634Z,101371.30
2023-05-06T05:26:10.054Z,101369.58
2023-05-06T05:26:40.489Z,101371.27
2023-05-06T05:27:10.906Z,101375.12
2023-05-06T05:27:41.330Z,101377.36
2023-05-06T05:28:11.752Z,101376.39
2023-05-06T05:28:42.173Z,101379.52
2023-05-06T05:29:12.601Z,101375.93
2023-05-06T05:29:43.019Z,101374.98
2023-05-06T05:30:13.458Z,101377.28
2023-05-06T05:30:43.875Z,101377.95
2023-05-06T05:31:14.317Z,101377.21
2023-05-06T05:31:44.727Z,101377.53
2023-05-06T05:32:15.173Z,101376.80
2023-05-06T05:32:45.718Z,101376.47
2023-05-06T05:33:16.163Z,101376.80
2023-05-06T05:33:46.638Z,101378.78
2023-05-06T05:34:17.025Z,101375.62
2023-05-06T05:34:47.474Z,101375.28
2023-05-06T05:35:17.893Z,101375.73
2023-05-06T05:35:48.314Z,101374.00
2023-05-06T05:36:18.737Z,101377.87
2023-05-06T05:36:49.169Z,101370.73
2023-05-06T05:37:19.585Z,101373.94
2023-05-06T05:37:50.001Z,101371.92
2023-05-06T05:38:20.417Z,101371.77
2023-05-06T05:38:50.849Z,101371.05
2023-05-06T05:39:21.356Z,101369.12
2023-05-06T05:39:51.732Z,101367.13
2023-05-06T05:40:22.154Z,101368.27
2023-05-06T05:40:52.586Z,101367.55
2023-05-06T05:41:23.000Z,101365.16
2023-05-06T05:41:53.417Z,101369.78
2023-05-06T05:42:23.842Z,101368.76
2023-05-06T05:42:54.267Z,101363.80
2023-05-06T05:43:24.689Z,101369.52
2023-05-06T05:43:55.119Z,101366.59
2023-05-06T05:44:25.590Z,101365.43
2023-05-06T05:44:56.004Z,101364.04
2023-05-06T05:45:26.428Z,101362.98
2023-05-06T05:45:56.917Z,101363.56
2023-05-06T05:46:27.335Z,101363.77
2023-05-06T05:46:57.733Z,101361.06
2023-05-06T05:47:28.172Z,101364.38